createdAt,value
2023-03-11T00:01:48.305Z,99.90
2023-03-11T04:09:38.747Z,99.90
2023-03-11T04:21:10.770Z,99.90
2023-03-11T05:38:20.523Z,99.90
2023-03-11T06:13:45.113Z,99.90
2023-03-11T06:18:46.930Z,99.90
2023-03-11T06:23:49.569Z,99.90
2023-03-11T06:28:52.409Z,99.90
2023-03-11T06:33:56.073Z,99.90
2023-03-11T06:38:58.038Z,99.90
2023-03-11T06:43:59.885Z,99.90
2023-03-11T06:49:01.869Z,99.90
2023-03-11T06:54:03.794Z,99.90
2023-03-11T06:59:05.564Z,99.90
2023-03-11T07:04:07.508Z,99.90
2023-03-11T07:09:09.748Z,99.90
2023-03-11T07:14:11.532Z,99.90
2023-03-11T07:19:14.326Z,99.90
2023-03-11T07:24:16.620Z,99.90
2023-03-11T07:29:19.089Z,99.90
2023-03-11T07:34:20.918Z,99.90
2023-03-11T07:39:22.768Z,99.90
2023-03-11T07:44:24.624Z,99.90
2023-03-11T07:49:26.456Z,99.90
2023-03-11T07:54:28.446Z,99.90
2023-03-11T07:59:30.322Z,99.90
2023-03-11T08:04:32.222Z,99.90
2023-03-11T08:09:36.890Z,99.90
2023-03-11T08:14:39.773Z,99.90
2023-03-11T08:19:41.640Z,99.90
2023-03-11T08:24:43.524Z,99.90
2023-03-11T08:29:45.350Z,99.90
2023-03-11T08:34:47.183Z,99.90
2023-03-11T08:39:49.341Z,99.90
2023-03-11T08:44:51.358Z,99.90
2023-03-11T08:49:53.206Z,99.90
2023-03-11T08:54:55.031Z,99.90
2023-03-11T08:59:58.362Z,99.90
2023-03-11T09:05:00.326Z,99.90
2023-03-11T09:10:02.367Z,99.90
2023-03-11T09:15:04.309Z,99.90
2023-03-11T09:20:06.973Z,99.90
2023-03-11T09:25:10.485Z,99.90
2023-03-11T09:30:12.631Z,99.90
2023-03-11T09:35:14.534Z,99.90
2023-03-11T09:40:19.068Z,99.90
2023-03-11T09:45:32.430Z,99.90
2023-03-11T09:50:49.974Z,99.90
2023-03-11T09:56:03.146Z,99.90
2023-03-11T10:01:23.219Z,99.90
2023-03-11T10:06:28.347Z,99.90
2023-03-11T10:11:59.352Z,99.90
2023-03-11T10:17:38.415Z,99.90
2023-03-11T10:23:25.140Z,99.90
2023-03-11T10:28:37.055Z,99.90
2023-03-11T10:33:47.643Z,99.90
2023-03-11T10:38:52.348Z,99.90
2023-03-11T10:43:59.781Z,99.90
2023-03-11T10:49:01.632Z,99.90
2023-03-11T10:54:04.320Z,99.90
2023-03-11T10:59:29.803Z,99.90
2023-03-11T11:04:37.302Z,99.90
2023-03-11T11:09:39.175Z,99.90
2023-03-11T11:14:48.216Z,99.90
2023-03-11T11:19:52.101Z,99.90
2023-03-11T11:24:55.399Z,99.90
2023-03-11T11:30:09.637Z,99.90
2023-03-11T11:35:14.646Z,99.90
2023-03-11T11:40:16.858Z,99.90
2023-03-11T11:45:38.140Z,99.90
2023-03-11T11:50:53.042Z,99.90
2023-03-11T11:55:55.090Z,99.90
2023-03-11T12:01:38.551Z,99.90
2023-03-11T12:06:55.405Z,99.90
2023-03-11T12:12:02.202Z,99.90
2023-03-11T12:17:05.323Z,99.90
2023-03-11T12:22:38.658Z,99.90
2023-03-11T12:27:44.578Z,99.90
2023-03-11T12:32:50.472Z,99.90
2023-03-11T12:38:07.967Z,99.90
2023-03-11T12:43:33.535Z,99.90
2023-03-11T12:48:41.103Z,99.90
2023-03-11T12:53:45.972Z,99.90
2023-03-11T12:59:03.010Z,99.90
2023-03-11T13:04:29.097Z,99.90
2023-03-11T13:09:31.620Z,99.90
2023-03-11T13:14:34.475Z,99.90
2023-03-11T13:19:37.404Z,99.90
2023-03-11T13:24:49.399Z,99.90
2023-03-11T13:29:57.540Z,99.90
2023-03-11T13:35:11.624Z,99.90
2023-03-11T13:40:31.095Z,99.90
2023-03-11T13:45:35.694Z,99.90
2023-03-11T13:50:40.671Z,99.90
2023-03-11T13:55:46.436Z,99.90
2023-03-11T14:00:50.480Z,99.90
2023-03-11T14:06:19.327Z,95.30
2023-03-11T14:11:27.202Z,96.30
2023-03-11T14:16:35.139Z,75.10
2023-03-11T14:21:37.118Z,95.50
2023-03-11T14:26:43.001Z,94.90
2023-03-11T14:31:46.071Z,88.80
2023-03-11T14:36:52.464Z,92.80
2023-03-11T14:41:58.620Z,90.30
2023-03-11T14:47:11.636Z,90.10
2023-03-11T14:52:19.010Z,90.50
2023-03-11T14:57:48.443Z,71.80
2023-03-11T15:03:12.934Z,79.00
2023-03-11T15:08:18.603Z,73.30
2023-03-11T15:13:24.232Z,79.30
2023-03-11T15:18:37.754Z,81.30
2023-03-11T15:23:39.860Z,76.10
2023-03-11T15:28:42.135Z,79.00
2023-03-11T15:33:44.437Z,76.60
2023-03-11T15:38:46.311Z,75.50
2023-03-11T15:43:48.698Z,62.00
2023-03-11T15:48:50.565Z,75.20
2023-03-11T15:53:52.564Z,75.20
2023-03-11T15:58:54.666Z,69.10
2023-03-11T16:03:56.629Z,82.00
2023-03-11T16:08:58.697Z,65.30
2023-03-11T16:14:00.883Z,65.20
2023-03-11T16:19:02.811Z,71.60
2023-03-11T16:24:05.650Z,75.30
2023-03-11T16:29:18.643Z,65.00
2023-03-11T16:34:21.207Z,66.60
2023-03-11T16:39:23.036Z,65.80
2023-03-11T16:44:24.945Z,72.90
2023-03-11T16:49:26.861Z,69.80
2023-03-11T16:54:28.656Z,74.90
2023-03-11T16:59:30.448Z,75.20
2023-03-11T17:04:33.642Z,73.00
2023-03-11T17:09:36.036Z,77.50
2023-03-11T17:14:37.832Z,86.30
2023-03-11T17:19:42.534Z,86.70
2023-03-11T17:24:46.668Z,90.40
2023-03-11T17:29:48.473Z,91.00
2023-03-11T17:34:50.452Z,92.30
2023-03-11T17:39:52.520Z,92.90
2023-03-11T17:44:57.795Z,92.80
2023-03-11T17:49:59.618Z,94.30
2023-03-11T18:00:46.707Z,97.20
2023-03-11T18:07:53.207Z,98.50
2023-03-11T18:11:51.053Z,99.90
2023-03-11T18:17:08.689Z,99.90
2023-03-11T18:22:25.034Z,99.90
2023-03-11T18:50:42.945Z,99.90
2023-03-11T19:07:50.755Z,99.90
2023-03-11T19:13:25.427Z,99.90
2023-03-11T19:20:03.199Z,99.90
2023-03-11T19:31:06.858Z,99.90
2023-03-11T19:36:41.704Z,99.90
2023-03-11T19:41:52.306Z,99.90
2023-03-11T19:47:23.040Z,99.90
2023-03-11T19:57:54.870Z,99.90
2023-03-11T20:03:25.601Z,99.90
2023-03-11T20:08:47.843Z,99.90
2023-03-11T20:13:52.777Z,99.90
2023-03-11T20:18:58.930Z,99.90
2023-03-11T20:24:06.480Z,99.90
2023-03-11T20:29:40.316Z,99.90
2023-03-11T20:40:31.847Z,99.90
2023-03-11T20:45:49.033Z,99.90
2023-03-11T20:50:57.822Z,99.90
2023-03-11T20:56:08.052Z,99.90
2023-03-11T21:01:30.093Z,99.90
2023-03-11T21:06:44.689Z,99.90
2023-03-11T21:11:58.865Z,99.90
2023-03-11T21:23:11.383Z,99.90
2023-03-11T21:28:36.932Z,99.90
2023-03-11T21:33:55.644Z,99.90
2023-03-11T21:39:34.078Z,99.90
2023-03-11T21:51:05.672Z,99.90
2023-03-11T21:56:23.438Z,99.90
2023-03-11T22:07:11.227Z,99.90
2023-03-11T22:12:17.195Z,99.90
2023-03-11T22:17:50.240Z,99.90
2023-03-11T22:23:19.636Z,99.90
2023-03-11T22:28:25.260Z,99.90
2023-03-11T22:33:39.985Z,99.90
2023-03-11T22:39:05.244Z,99.90
2023-03-11T22:49:50.749Z,99.90
2023-03-11T22:55:24.668Z,99.90
2023-03-11T23:01:05.028Z,99.90
2023-03-11T23:06:04.617Z,99.90
2023-03-11T23:11:46.814Z,99.90
2023-03-11T23:16:51.024Z,99.90
2023-03-11T23:21:53.342Z,99.90
2023-03-11T23:27:04.978Z,99.90
2023-03-11T23:32:13.909Z,99.90
2023-03-11T23:38:09.433Z,99.90
2023-03-11T23:43:07.513Z,99.90
2023-03-11T23:48:14.923Z,99.90
2023-03-11T23:53:41.911Z,99.90
2023-03-11T23:58:48.400Z,99.90
